sensor_id;sensor_type;location;lat;lon;timestamp;temperature;humidity
62991;DHT22;49084;48.204;16.202;2024-02-21T00:02:09;7.40;99.90
62991;DHT22;49084;48.204;16.202;2024-02-21T00:04:34;7.40;99.90
62991;DHT22;49084;48.204;16.202;2024-02-21T00:07:01;7.40;99.90
62991;DHT22;49084;48.204;16.202;2024-02-21T00:09:27;7.40;99.90
62991;DHT22;49084;48.204;16.202;2024-02-21T00:11:53;7.40;99.90
62991;DHT22;49084;48.204;16.202;2024-02-21T00:14:18;7.40;99.90
62991;DHT22;49084;48.204;16.202;2024-02-21T00:16:44;7.50;99.90
62991;DHT22;49084;48.204;16.202;2024-02-21T00:19:10;7.40;99.90
62991;DHT22;49084;48.204;16.202;2024-02-21T00:21:35;7.50;99.90
62991;DHT22;49084;48.204;16.202;2024-02-21T00:24:01;7.50;99.90
62991;DHT22;49084;48.204;16.202;2024-02-21T00:26:26;7.50;99.90
62991;DHT22;49084;48.204;16.202;2024-02-21T00:28:53;7.50;99.90
62991;DHT22;49084;48.204;16.202;2024-02-21T00:31:18;7.50;99.90
62991;DHT22;49084;48.204;16.202;2024-02-21T00:33:44;7.50;99.90
62991;DHT22;49084;48.204;16.202;2024-02-21T00:36:10;7.50;99.90
62991;DHT22;49084;48.204;16.202;2024-02-21T00:38:35;7.50;99.90
62991;DHT22;49084;48.204;16.202;2024-02-21T00:41:01;7.50;99.90
62991;DHT22;49084;48.204;16.202;2024-02-21T00:43:26;7.50;99.90
62991;DHT22;49084;48.204;16.202;2024-02-21T00:45:52;7.50;99.90
62991;DHT22;49084;48.204;16.202;2024-02-21T00:48:18;7.50;99.90
62991;DHT22;49084;48.204;16.202;2024-02-21T00:50:43;7.50;99.90
62991;DHT22;49084;48.204;16.202;2024-02-21T00:53:09;7.50;99.90
62991;DHT22;49084;48.204;16.202;2024-02-21T00:55:35;7.50;99.90
62991;DHT22;49084;48.204;16.202;2024-02-21T00:58:01;7.50;99.90
62991;DHT22;49084;48.204;16.202;2024-02-21T01:00:26;7.50;99.90
62991;DHT22;49084;48.204;16.202;2024-02-21T01:02:52;7.50;99.90
62991;DHT22;49084;48.204;16.202;2024-02-21T01:05:18;7.50;99.90
62991;DHT22;49084;48.204;16.202;2024-02-21T01:07:44;7.50;99.90
62991;DHT22;49084;48.204;16.202;2024-02-21T01:10:10;7.50;99.90
62991;DHT22;49084;48.204;16.202;2024-02-21T01:12:36;7.50;99.90
62991;DHT22;49084;48.204;16.202;2024-02-21T01:15:02;7.50;99.90
62991;DHT22;49084;48.204;16.202;2024-02-21T01:17:28;7.50;99.90
62991;DHT22;49084;48.204;16.202;2024-02-21T01:19:53;7.50;99.90
62991;DHT22;49084;48.204;16.202;2024-02-21T01:22:19;7.50;99.90
62991;DHT22;49084;48.204;16.202;2024-02-21T01:24:45;7.40;99.90
62991;DHT22;49084;48.204;16.202;2024-02-21T01:27:10;7.50;99.90
62991;DHT22;49084;48.204;16.202;2024-02-21T01:29:36;7.50;99.90
62991;DHT22;49084;48.204;16.202;2024-02-21T01:32:01;7.40;99.90
62991;DHT22;49084;48.204;16.202;2024-02-21T01:34:27;7.40;99.90
62991;DHT22;49084;48.204;16.202;2024-02-21T01:36:53;7.40;99.90
62991;DHT22;49084;48.204;16.202;2024-02-21T01:39:18;7.40;99.90
62991;DHT22;49084;48.204;16.202;2024-02-21T01:41:44;7.40;99.90
62991;DHT22;49084;48.204;16.202;2024-02-21T01:44:09;7.40;99.90
62991;DHT22;49084;48.204;16.202;2024-02-21T01:46:35;7.40;99.90
62991;DHT22;49084;48.204;16.202;2024-02-21T01:49:01;7.40;99.90
62991;DHT22;49084;48.204;16.202;2024-02-21T01:51:27;7.30;99.90
62991;DHT22;49084;48.204;16.202;2024-02-21T01:53:55;7.30;99.90
62991;DHT22;49084;48.204;16.202;2024-02-21T01:56:21;7.30;99.90
62991;DHT22;49084;48.204;16.202;2024-02-21T01:58:48;7.30;99.90
62991;DHT22;49084;48.204;16.202;2024-02-21T02:01:14;7.30;99.90
62991;DHT22;49084;48.204;16.202;2024-02-21T02:03:40;7.30;99.90
62991;DHT22;49084;48.204;16.202;2024-02-21T02:06:06;7.30;99.90
62991;DHT22;49084;48.204;16.202;2024-02-21T02:08:34;7.30;99.90
62991;DHT22;49084;48.204;16.202;2024-02-21T02:11:01;7.40;99.90
62991;DHT22;49084;48.204;16.202;2024-02-21T02:13:26;7.40;99.90
62991;DHT22;49084;48.204;16.202;2024-02-21T02:15:52;7.40;99.90
62991;DHT22;49084;48.204;16.202;2024-02-21T02:18:19;7.40;99.90
62991;DHT22;49084;48.204;16.202;2024-02-21T02:20:45;7.40;99.90
62991;DHT22;49084;48.204;16.202;2024-02-21T02:23:11;7.40;99.90
62991;DHT22;49084;48.204;16.202;2024-02-21T02:25:38;7.40;99.90
62991;DHT22;49084;48.204;16.202;2024-02-21T02:28:07;7.40;99.90
62991;DHT22;49084;48.204;16.202;2024-02-21T02:30:36;7.40;99.90
62991;DHT22;49084;48.204;16.202;2024-02-21T02:33:05;7.40;99.90
62991;DHT22;49084;48.204;16.202;2024-02-21T02:35:32;7.40;99.90
62991;DHT22;49084;48.204;16.202;2024-02-21T02:37:58;7.40;99.90
62991;DHT22;49084;48.204;16.202;2024-02-21T02:40:24;7.40;99.90
62991;DHT22;49084;48.204;16.202;2024-02-21T02:42:50;7.40;99.90
62991;DHT22;49084;48.204;16.202;2024-02-21T02:45:17;7.40;99.90
62991;DHT22;49084;48.204;16.202;2024-02-21T02:47:45;7.40;99.90
62991;DHT22;49084;48.204;16.202;2024-02-21T02:50:11;7.40;99.90
62991;DHT22;49084;48.204;16.202;2024-02-21T02:52:37;7.40;99.90
62991;DHT22;49084;48.204;16.202;2024-02-21T02:55:04;7.40;99.90
62991;DHT22;49084;48.204;16.202;2024-02-21T02:57:30;7.40;99.90
62991;DHT22;49084;48.204;16.202;2024-02-21T02:59:56;7.40;99.90
62991;DHT22;49084;48.204;16.202;2024-02-21T03:02:21;7.40;99.90
62991;DHT22;49084;48.204;16.202;2024-02-21T03:04:47;7.40;99.90
62991;DHT22;49084;48.204;16.202;2024-02-21T03:07:14;7.40;99.90
62991;DHT22;49084;48.204;16.202;2024-02-21T03:09:40;7.40;99.90
62991;DHT22;49084;48.204;16.202;2024-02-21T03:12:06;7.40;99.90
62991;DHT22;49084;48.204;16.202;2024-02-21T03:14:32;7.40;99.90
62991;DHT22;49084;48.204;16.202;2024-02-21T03:16:58;7.40;99.90
62991;DHT22;49084;48.204;16.202;2024-02-21T03:19:24;7.40;99.90
62991;DHT22;49084;48.204;16.202;2024-02-21T03:21:51;7.30;99.90
62991;DHT22;49084;48.204;16.202;2024-02-21T03:24:17;7.30;99.90
62991;DHT22;49084;48.204;16.202;2024-02-21T03:26:42;7.30;99.90
62991;DHT22;49084;48.204;16.202;2024-02-21T03:29:08;7.30;99.90
62991;DHT22;49084;48.204;16.202;2024-02-21T03:31:34;7.30;99.90
62991;DHT22;49084;48.204;16.202;2024-02-21T03:34:00;7.30;99.90
62991;DHT22;49084;48.204;16.202;2024-02-21T03:38:52;7.20;99.90
62991;DHT22;49084;48.204;16.202;2024-02-21T03:41:17;7.20;99.90
62991;DHT22;49084;48.204;16.202;2024-02-21T03:43:43;7.20;99.90
62991;DHT22;49084;48.204;16.202;2024-02-21T03:46:08;7.10;99.90
62991;DHT22;49084;48.204;16.202;2024-02-21T03:48:35;7.00;99.90
62991;DHT22;49084;48.204;16.202;2024-02-21T03:51:01;7.00;99.90
62991;DHT22;49084;48.204;16.202;2024-02-21T03:53:26;6.90;99.90
62991;DHT22;49084;48.204;16.202;2024-02-21T03:55:52;6.80;99.90
62991;DHT22;49084;48.204;16.202;2024-02-21T03:58:18;6.80;99.90
62991;DHT22;49084;48.204;16.202;2024-02-21T04:00:43;6.80;99.90
62991;DHT22;49084;48.204;16.202;2024-02-21T04:03:09;6.70;99.90
62991;DHT22;49084;48.204;16.202;2024-02-21T04:05:34;6.70;99.90
62991;DHT22;49084;48.204;16.202;2024-02-21T04:08:00;6.60;99.90
62991;DHT22;49084;48.204;16.202;2024-02-21T04:10:28;6.60;99.90
62991;DHT22;49084;48.204;16.202;2024-02-21T04:12:54;6.60;99.90
62991;DHT22;49084;48.204;16.202;2024-02-21T04:15:19;6.60;99.90
62991;DHT22;49084;48.204;16.202;2024-02-21T04:17:45;6.70;99.90
62991;DHT22;49084;48.204;16.202;2024-02-21T04:20:15;6.70;99.90
62991;DHT22;49084;48.204;16.202;2024-02-21T04:22:42;6.80;99.90
62991;DHT22;49084;48.204;16.202;2024-02-21T04:25:08;6.70;99.90
62991;DHT22;49084;48.204;16.202;2024-02-21T04:27:33;6.80;99.90
62991;DHT22;49084;48.204;16.202;2024-02-21T04:29:59;6.80;99.90
62991;DHT22;49084;48.204;16.202;2024-02-21T04:32:25;6.90;99.90
62991;DHT22;49084;48.204;16.202;2024-02-21T04:34:53;6.90;99.90
62991;DHT22;49084;48.204;16.202;2024-02-21T04:37:18;6.90;99.90
62991;DHT22;49084;48.204;16.202;2024-02-21T04:39:44;6.90;99.90
62991;DHT22;49084;48.204;16.202;2024-02-21T04:42:10;7.00;99.90
62991;DHT22;49084;48.204;16.202;2024-02-21T04:44:36;6.90;99.90
62991;DHT22;49084;48.204;16.202;2024-02-21T04:47:01;7.00;99.90
62991;DHT22;49084;48.204;16.202;2024-02-21T04:49:29;7.00;99.90
62991;DHT22;49084;48.204;16.202;2024-02-21T04:51:54;7.00;99.90
62991;DHT22;49084;48.204;16.202;2024-02-21T04:54:20;7.10;99.90
62991;DHT22;49084;48.204;16.202;2024-02-21T04:56:45;7.10;99.90
62991;DHT22;49084;48.204;16.202;2024-02-21T04:59:11;7.10;99.90
62991;DHT22;49084;48.204;16.202;2024-02-21T05:01:37;7.10;99.90
62991;DHT22;49084;48.204;16.202;2024-02-21T05:04:02;7.10;99.90
62991;DHT22;49084;48.204;16.202;2024-02-21T05:06:28;7.10;99.90
62991;DHT22;49084;48.204;16.202;2024-02-21T05:08:54;7.10;99.90
62991;DHT22;49084;48.204;16.202;2024-02-21T05:11:21;7.10;99.90
62991;DHT22;49084;48.204;16.202;2024-02-21T05:13:47;7.00;99.90
62991;DHT22;49084;48.204;16.202;2024-02-21T05:16:12;7.10;99.90
62991;DHT22;49084;48.204;16.202;2024-02-21T05:18:38;7.00;99.90
62991;DHT22;49084;48.204;16.202;2024-02-21T05:21:05;7.00;99.90
62991;DHT22;49084;48.204;16.202;2024-02-21T05:23:31;7.00;99.90
62991;DHT22;49084;48.204;16.202;2024-02-21T05:25:56;7.00;99.90
62991;DHT22;49084;48.204;16.202;2024-02-21T05:28:22;7.00;99.90
62991;DHT22;49084;48.204;16.202;2024-02-21T05:30:48;7.00;99.90
62991;DHT22;49084;48.204;16.202;2024-02-21T05:33:13;7.00;99.90
62991;DHT22;49084;48.204;16.202;2024-02-21T05:35:49;7.00;99.90
62991;DHT22;49084;48.204;16.202;2024-02-21T05:38:15;7.10;99.90
62991;DHT22;49084;48.204;16.202;2024-02-21T05:40:41;7.10;99.90
62991;DHT22;49084;48.204;16.202;2024-02-21T05:43:09;7.10;99.90
62991;DHT22;49084;48.204;16.202;2024-02-21T05:45:36;7.20;99.90
62991;DHT22;49084;48.204;16.202;2024-02-21T05:48:02;7.20;99.90
62991;DHT22;49084;48.204;16.202;2024-02-21T05:50:28;7.20;99.90
62991;DHT22;49084;48.204;16.202;2024-02-21T05:52:54;7.20;99.90
62991;DHT22;49084;48.204;16.202;2024-02-21T05:55:21;7.20;99.90
62991;DHT22;49084;48.204;16.202;2024-02-21T05:57:46;7.30;99.90
62991;DHT22;49084;48.204;16.202;2024-02-21T06:00:13;7.20;99.90
62991;DHT22;49084;48.204;16.202;2024-02-21T06:02:39;7.30;99.90
62991;DHT22;49084;48.204;16.202;2024-02-21T06:05:05;7.30;99.90
62991;DHT22;49084;48.204;16.202;2024-02-21T06:07:33;7.20;99.90
62991;DHT22;49084;48.204;16.202;2024-02-21T06:09:59;7.20;99.90
62991;DHT22;49084;48.204;16.202;2024-02-21T06:12:25;7.20;99.90
62991;DHT22;49084;48.204;16.202;2024-02-21T15:42:05;12.60;80.10
62991;DHT22;49084;48.204;16.202;2024-02-21T15:44:31;12.40;80.50
62991;DHT22;49084;48.204;16.202;2024-02-21T15:46:57;12.30;81.30
62991;DHT22;49084;48.204;16.202;2024-02-21T15:49:22;12.10;81.50
62991;DHT22;49084;48.204;16.202;2024-02-21T15:51:48;12.00;81.10
62991;DHT22;49084;48.204;16.202;2024-02-21T15:54:15;11.90;81.80
62991;DHT22;49084;48.204;16.202;2024-02-21T15:56:43;11.90;81.50
62991;DHT22;49084;48.204;16.202;2024-02-21T15:59:09;11.80;81.70
62991;DHT22;49084;48.204;16.202;2024-02-21T16:01:36;11.70;80.40
62991;DHT22;49084;48.204;16.202;2024-02-21T16:04:02;11.60;81.80
62991;DHT22;49084;48.204;16.202;2024-02-21T16:06:27;11.60;77.90
62991;DHT22;49084;48.204;16.202;2024-02-21T16:08:54;11.60;78.10
62991;DHT22;49084;48.204;16.202;2024-02-21T16:11:19;11.60;78.00
62991;DHT22;49084;48.204;16.202;2024-02-21T16:13:45;11.60;77.20
62991;DHT22;49084;48.204;16.202;2024-02-21T16:16:11;11.50;77.30
62991;DHT22;49084;48.204;16.202;2024-02-21T16:18:37;11.50;77.60
62991;DHT22;49084;48.204;16.202;2024-02-21T16:21:03;11.40;78.60
62991;DHT22;49084;48.204;16.202;2024-02-21T16:23:31;11.30;79.40
62991;DHT22;49084;48.204;16.202;2024-02-21T16:25:58;11.20;79.10
62991;DHT22;49084;48.204;16.202;2024-02-21T16:28:23;11.00;79.80
62991;DHT22;49084;48.204;16.202;2024-02-21T16:30:50;10.90;80.30
62991;DHT22;49084;48.204;16.202;2024-02-21T16:33:16;10.70;81.30
62991;DHT22;49084;48.204;16.202;2024-02-21T16:35:42;10.60;82.80
62991;DHT22;49084;48.204;16.202;2024-02-21T16:38:07;10.40;87.60
62991;DHT22;49084;48.204;16.202;2024-02-21T16:40:36;10.20;88.40
62991;DHT22;49084;48.204;16.202;2024-02-21T16:43:02;9.90;91.60
62991;DHT22;49084;48.204;16.202;2024-02-21T16:45:28;9.70;92.00
62991;DHT22;49084;48.204;16.202;2024-02-21T16:47:54;9.40;92.80
62991;DHT22;49084;48.204;16.202;2024-02-21T16:50:19;9.30;94.00
62991;DHT22;49084;48.204;16.202;2024-02-21T16:52:45;9.00;95.00
62991;DHT22;49084;48.204;16.202;2024-02-21T16:55:10;8.90;95.50
62991;DHT22;49084;48.204;16.202;2024-02-21T16:57:39;8.80;96.30
62991;DHT22;49084;48.204;16.202;2024-02-21T17:00:05;8.60;97.50
62991;DHT22;49084;48.204;16.202;2024-02-21T17:02:38;8.50;99.90
62991;DHT22;49084;48.204;16.202;2024-02-21T17:05:05;8.30;99.90
62991;DHT22;49084;48.204;16.202;2024-02-21T17:07:31;8.20;99.90
62991;DHT22;49084;48.204;16.202;2024-02-21T17:09:56;8.00;99.90
62991;DHT22;49084;48.204;16.202;2024-02-21T17:12:24;7.90;99.90
62991;DHT22;49084;48.204;16.202;2024-02-21T17:14:50;7.80;99.90
62991;DHT22;49084;48.204;16.202;2024-02-21T17:19:42;7.60;99.90
62991;DHT22;49084;48.204;16.202;2024-02-21T17:22:07;7.60;99.90
62991;DHT22;49084;48.204;16.202;2024-02-21T17:24:33;7.30;99.90
62991;DHT22;49084;48.204;16.202;2024-02-21T17:26:59;7.30;99.90
62991;DHT22;49084;48.204;16.202;2024-02-21T17:29:25;7.20;99.90
62991;DHT22;49084;48.204;16.202;2024-02-21T17:31:52;7.10;99.90
62991;DHT22;49084;48.204;16.202;2024-02-21T17:34:17;7.10;99.90
62991;DHT22;49084;48.204;16.202;2024-02-21T17:36:43;7.00;99.90
62991;DHT22;49084;48.204;16.202;2024-02-21T17:39:09;6.90;99.90
62991;DHT22;49084;48.204;16.202;2024-02-21T17:41:36;6.90;99.90
62991;DHT22;49084;48.204;16.202;2024-02-21T17:44:02;6.80;99.90
62991;DHT22;49084;48.204;16.202;2024-02-21T17:46:28;6.80;99.90
62991;DHT22;49084;48.204;16.202;2024-02-21T17:48:54;6.70;99.90
62991;DHT22;49084;48.204;16.202;2024-02-21T17:51:20;6.70;99.90
62991;DHT22;49084;48.204;16.202;2024-02-21T17:53:46;6.60;99.90
62991;DHT22;49084;48.204;16.202;2024-02-21T17:56:12;6.60;99.90
62991;DHT22;49084;48.204;16.202;2024-02-21T17:58:38;6.60;99.90
62991;DHT22;49084;48.204;16.202;2024-02-21T18:01:04;6.50;99.90
62991;DHT22;49084;48.204;16.202;2024-02-21T18:03:29;6.40;99.90
62991;DHT22;49084;48.204;16.202;2024-02-21T18:05:59;6.30;99.90
62991;DHT22;49084;48.204;16.202;2024-02-21T18:08:26;6.30;99.90
62991;DHT22;49084;48.204;16.202;2024-02-21T18:10:51;6.20;99.90
62991;DHT22;49084;48.204;16.202;2024-02-21T18:13:17;6.20;99.90
62991;DHT22;49084;48.204;16.202;2024-02-21T18:15:43;6.10;99.90
62991;DHT22;49084;48.204;16.202;2024-02-21T18:18:09;6.10;99.90
62991;DHT22;49084;48.204;16.202;2024-02-21T18:20:36;6.00;99.90
62991;DHT22;49084;48.204;16.202;2024-02-21T18:23:02;6.00;99.90
62991;DHT22;49084;48.204;16.202;2024-02-21T18:25:28;5.90;99.90
62991;DHT22;49084;48.204;16.202;2024-02-21T18:27:54;5.90;99.90
62991;DHT22;49084;48.204;16.202;2024-02-21T18:30:20;5.80;99.90
62991;DHT22;49084;48.204;16.202;2024-02-21T18:32:48;5.70;99.90
62991;DHT22;49084;48.204;16.202;2024-02-21T18:35:16;5.70;99.90
62991;DHT22;49084;48.204;16.202;2024-02-21T18:37:42;5.70;99.90
62991;DHT22;49084;48.204;16.202;2024-02-21T18:40:09;5.60;99.90
62991;DHT22;49084;48.204;16.202;2024-02-21T18:42:41;5.60;99.90
62991;DHT22;49084;48.204;16.202;2024-02-21T18:45:33;5.40;99.90
62991;DHT22;49084;48.204;16.202;2024-02-21T18:48:19;5.40;99.90
62991;DHT22;49084;48.204;16.202;2024-02-21T18:50:44;5.30;99.90
62991;DHT22;49084;48.204;16.202;2024-02-21T18:53:10;5.30;99.90
62991;DHT22;49084;48.204;16.202;2024-02-21T18:55:36;5.20;99.90
62991;DHT22;49084;48.204;16.202;2024-02-21T18:58:02;5.20;99.90
62991;DHT22;49084;48.204;16.202;2024-02-21T19:00:27;5.20;99.90
62991;DHT22;49084;48.204;16.202;2024-02-21T19:02:53;5.10;99.90
62991;DHT22;49084;48.204;16.202;2024-02-21T19:05:19;5.10;99.90
62991;DHT22;49084;48.204;16.202;2024-02-21T19:07:49;5.00;99.90
62991;DHT22;49084;48.204;16.202;2024-02-21T19:10:14;5.00;99.90
62991;DHT22;49084;48.204;16.202;2024-02-21T19:12:40;4.90;99.90
62991;DHT22;49084;48.204;16.202;2024-02-21T19:15:07;4.90;99.90
62991;DHT22;49084;48.204;16.202;2024-02-21T19:17:33;4.80;99.90
62991;DHT22;49084;48.204;16.202;2024-02-21T19:19:59;4.80;99.90
62991;DHT22;49084;48.204;16.202;2024-02-21T19:22:25;4.70;99.90
62991;DHT22;49084;48.204;16.202;2024-02-21T19:24:55;4.70;99.90
62991;DHT22;49084;48.204;16.202;2024-02-21T19:27:22;4.70;99.90
62991;DHT22;49084;48.204;16.202;2024-02-21T19:29:47;4.60;99.90
62991;DHT22;49084;48.204;16.202;2024-02-21T19:32:13;4.60;99.90
62991;DHT22;49084;48.204;16.202;2024-02-21T19:34:40;4.50;99.90
62991;DHT22;49084;48.204;16.202;2024-02-21T19:37:06;4.50;99.90
62991;DHT22;49084;48.204;16.202;2024-02-21T19:39:32;4.40;99.90
62991;DHT22;49084;48.204;16.202;2024-02-21T19:41:58;4.50;99.90
62991;DHT22;49084;48.204;16.202;2024-02-21T19:44:23;4.50;99.90
62991;DHT22;49084;48.204;16.202;2024-02-21T19:46:49;4.50;99.90
62991;DHT22;49084;48.204;16.202;2024-02-21T19:49:15;4.40;99.90
62991;DHT22;49084;48.204;16.202;2024-02-21T19:51:41;4.30;99.90
62991;DHT22;49084;48.204;16.202;2024-02-21T19:54:07;4.30;99.90
62991;DHT22;49084;48.204;16.202;2024-02-21T19:56:33;4.30;99.90
62991;DHT22;49084;48.204;16.202;2024-02-21T19:58:58;4.30;99.90
62991;DHT22;49084;48.204;16.202;2024-02-21T20:01:26;4.20;99.90
62991;DHT22;49084;48.204;16.202;2024-02-21T20:03:52;4.20;99.90
62991;DHT22;49084;48.204;16.202;2024-02-21T20:06:18;4.10;99.90
62991;DHT22;49084;48.204;16.202;2024-02-21T20:08:46;4.00;99.90
62991;DHT22;49084;48.204;16.202;2024-02-21T20:11:12;3.90;99.90
62991;DHT22;49084;48.204;16.202;2024-02-21T20:13:40;4.00;99.90
62991;DHT22;49084;48.204;16.202;2024-02-21T20:16:07;3.90;99.90
62991;DHT22;49084;48.204;16.202;2024-02-21T20:18:33;3.80;99.90
62991;DHT22;49084;48.204;16.202;2024-02-21T20:20:59;3.80;99.90
62991;DHT22;49084;48.204;16.202;2024-02-21T20:23:25;3.80;99.90
62991;DHT22;49084;48.204;16.202;2024-02-21T20:25:51;3.70;99.90
62991;DHT22;49084;48.204;16.202;2024-02-21T20:30:44;3.70;99.90
62991;DHT22;49084;48.204;16.202;2024-02-21T20:33:10;3.60;99.90
62991;DHT22;49084;48.204;16.202;2024-02-21T20:35:36;3.60;99.90
62991;DHT22;49084;48.204;16.202;2024-02-21T20:38:02;3.50;99.90
62991;DHT22;49084;48.204;16.202;2024-02-21T20:40:28;3.50;99.90
62991;DHT22;49084;48.204;16.202;2024-02-21T20:42:54;3.50;99.90
62991;DHT22;49084;48.204;16.202;2024-02-21T20:45:20;3.50;99.90
62991;DHT22;49084;48.204;16.202;2024-02-21T20:47:45;3.50;99.90
62991;DHT22;49084;48.204;16.202;2024-02-21T20:50:11;4.10;99.90
62991;DHT22;49084;48.204;16.202;2024-02-21T20:52:37;3.60;99.90
62991;DHT22;49084;48.204;16.202;2024-02-21T20:55:03;3.40;99.90
62991;DHT22;49084;48.204;16.202;2024-02-21T20:57:31;3.40;99.90
62991;DHT22;49084;48.204;16.202;2024-02-21T20:59:57;3.30;99.90
62991;DHT22;49084;48.204;16.202;2024-02-21T21:02:23;3.30;99.90
62991;DHT22;49084;48.204;16.202;2024-02-21T21:04:49;3.30;99.90
62991;DHT22;49084;48.204;16.202;2024-02-21T21:07:14;3.20;99.90
62991;DHT22;49084;48.204;16.202;2024-02-21T21:09:41;3.20;99.90
62991;DHT22;49084;48.204;16.202;2024-02-21T21:12:07;3.20;99.90
62991;DHT22;49084;48.204;16.202;2024-02-21T21:14:36;3.20;99.90
62991;DHT22;49084;48.204;16.202;2024-02-21T21:17:01;3.20;99.90
62991;DHT22;49084;48.204;16.202;2024-02-21T21:19:29;3.20;99.90
62991;DHT22;49084;48.204;16.202;2024-02-21T21:21:55;3.20;99.90
62991;DHT22;49084;48.204;16.202;2024-02-21T21:24:25;3.20;99.90
62991;DHT22;49084;48.204;16.202;2024-02-21T21:26:52;3.10;99.90
62991;DHT22;49084;48.204;16.202;2024-02-21T21:29:18;3.10;99.90
62991;DHT22;49084;48.204;16.202;2024-02-21T21:31:44;3.10;99.90
62991;DHT22;49084;48.204;16.202;2024-02-21T21:34:10;3.20;99.90
62991;DHT22;49084;48.204;16.202;2024-02-21T21:36:37;3.10;99.90
62991;DHT22;49084;48.204;16.202;2024-02-21T21:39:03;3.20;99.90
62991;DHT22;49084;48.204;16.202;2024-02-21T21:41:30;3.20;99.90
62991;DHT22;49084;48.204;16.202;2024-02-21T21:43:56;3.20;99.90
62991;DHT22;49084;48.204;16.202;2024-02-21T21:46:22;3.20;99.90
62991;DHT22;49084;48.204;16.202;2024-02-21T21:48:48;3.20;99.90
62991;DHT22;49084;48.204;16.202;2024-02-21T21:53:40;3.20;99.90
62991;DHT22;49084;48.204;16.202;2024-02-21T21:56:06;3.30;99.90
62991;DHT22;49084;48.204;16.202;2024-02-21T21:58:32;3.30;99.90
62991;DHT22;49084;48.204;16.202;2024-02-21T22:00:58;3.30;99.90
62991;DHT22;49084;48.204;16.202;2024-02-21T22:03:24;3.30;99.90
62991;DHT22;49084;48.204;16.202;2024-02-21T22:05:49;3.30;99.90
62991;DHT22;49084;48.204;16.202;2024-02-21T22:08:15;3.50;99.90
62991;DHT22;49084;48.204;16.202;2024-02-21T22:10:41;3.30;99.90
62991;DHT22;49084;48.204;16.202;2024-02-21T22:13:06;3.20;99.90
62991;DHT22;49084;48.204;16.202;2024-02-21T22:15:32;3.30;99.90
62991;DHT22;49084;48.204;16.202;2024-02-21T22:17:58;3.40;99.90
62991;DHT22;49084;48.204;16.202;2024-02-21T22:20:25;3.20;99.90
62991;DHT22;49084;48.204;16.202;2024-02-21T22:22:51;3.20;99.90
62991;DHT22;49084;48.204;16.202;2024-02-21T22:25:17;3.20;99.90
62991;DHT22;49084;48.204;16.202;2024-02-21T22:27:42;3.20;99.90
62991;DHT22;49084;48.204;16.202;2024-02-21T22:30:08;3.30;99.90
62991;DHT22;49084;48.204;16.202;2024-02-21T22:32:37;3.30;99.90
62991;DHT22;49084;48.204;16.202;2024-02-21T22:35:03;3.60;99.90
62991;DHT22;49084;48.204;16.202;2024-02-21T22:37:30;3.30;99.90
62991;DHT22;49084;48.204;16.202;2024-02-21T22:39:57;3.30;99.90
62991;DHT22;49084;48.204;16.202;2024-02-21T22:42:22;3.40;99.90
62991;DHT22;49084;48.204;16.202;2024-02-21T22:44:48;3.40;99.90
62991;DHT22;49084;48.204;16.202;2024-02-21T22:47:14;3.40;99.90
62991;DHT22;49084;48.204;16.202;2024-02-21T22:49:39;3.50;99.90
62991;DHT22;49084;48.204;16.202;2024-02-21T22:52:05;3.50;99.90
62991;DHT22;49084;48.204;16.202;2024-02-21T22:54:32;3.50;99.90
62991;DHT22;49084;48.204;16.202;2024-02-21T22:56:58;3.50;99.90
62991;DHT22;49084;48.204;16.202;2024-02-21T22:59:24;3.50;99.90
62991;DHT22;49084;48.204;16.202;2024-02-21T23:01:50;3.60;99.90
62991;DHT22;49084;48.204;16.202;2024-02-21T23:04:16;3.60;99.90
62991;DHT22;49084;48.204;16.202;2024-02-21T23:06:42;3.60;99.90
62991;DHT22;49084;48.204;16.202;2024-02-21T23:09:07;3.60;99.90
62991;DHT22;49084;48.204;16.202;2024-02-21T23:11:34;3.70;99.90
62991;DHT22;49084;48.204;16.202;2024-02-21T23:14:02;3.60;99.90
62991;DHT22;49084;48.204;16.202;2024-02-21T23:16:29;3.70;99.90
62991;DHT22;49084;48.204;16.202;2024-02-21T23:18:55;3.60;99.90
62991;DHT22;49084;48.204;16.202;2024-02-21T23:21:21;3.60;99.90
62991;DHT22;49084;48.204;16.202;2024-02-21T23:23:47;3.60;99.90
62991;DHT22;49084;48.204;16.202;2024-02-21T23:26:13;3.70;99.90
62991;DHT22;49084;48.204;16.202;2024-02-21T23:28:43;3.70;99.90
62991;DHT22;49084;48.204;16.202;2024-02-21T23:31:11;3.70;99.90
62991;DHT22;49084;48.204;16.202;2024-02-21T23:33:37;3.80;99.90
62991;DHT22;49084;48.204;16.202;2024-02-21T23:36:03;3.80;99.90
62991;DHT22;49084;48.204;16.202;2024-02-21T23:38:35;3.80;99.90
62991;DHT22;49084;48.204;16.202;2024-02-21T23:41:01;3.90;99.90
62991;DHT22;49084;48.204;16.202;2024-02-21T23:43:26;3.90;99.90
62991;DHT22;49084;48.204;16.202;2024-02-21T23:46:01;3.90;99.90
62991;DHT22;49084;48.204;16.202;2024-02-21T23:48:26;3.90;99.90
62991;DHT22;49084;48.204;16.202;2024-02-21T23:50:52;3.90;99.90
62991;DHT22;49084;48.204;16.202;2024-02-21T23:53:17;3.90;99.90
62991;DHT22;49084;48.204;16.202;2024-02-21T23:55:43;3.90;99.90
62991;DHT22;49084;48.204;16.202;2024-02-21T23:58:09;3.90;99.90
